Time;durP1;ratioP1;P1;durP2;ratioP2;P2;SDS_P1;SDS_P2;PMS_P1;PMS_P2;Temp;Humidity;BMP_temperature;BMP_pressure;BME280_temperature;BME280_humidity;BME280_pressure;Samples;Min_cycle;Max_cycle;Signal;HPM_P1;HPM_P2
2022/08/28 00:00:28;;;;;;;19.07;12.20;;;18.20;99.90;;;;;;4149218;28;20275;-80
2022/08/28 00:02:32;;;;;;;22.33;12.23;;;18.20;99.90;;;;;;4145282;28;20204;-81
2022/08/28 00:04:35;;;;;;;20.83;12.03;;;18.20;99.90;;;;;;4141381;28;20211;-81
2022/08/28 00:06:37;;;;;;;17.63;11.40;;;18.10;99.90;;;;;;4141573;28;20206;-81
2022/08/28 00:08:40;;;;;;;18.00;11.33;;;18.10;99.90;;;;;;4124650;28;20316;-81
2022/08/28 00:10:43;;;;;;;21.90;11.17;;;18.10;99.90;;;;;;4139168;28;20751;-81
2022/08/28 00:12:47;;;;;;;18.63;10.80;;;18.00;99.90;;;;;;4157656;28;20234;-81
2022/08/28 00:14:49;;;;;;;21.37;10.70;;;18.00;99.90;;;;;;4144222;28;20237;-80
2022/08/28 00:16:51;;;;;;;16.70;10.33;;;18.00;99.90;;;;;;4144787;28;20294;-80
2022/08/28 00:18:53;;;;;;;16.47;9.63;;;18.00;99.90;;;;;;4143725;28;20234;-81
2022/08/28 00:20:56;;;;;;;17.33;9.67;;;17.90;99.90;;;;;;4140079;28;20234;-82
2022/08/28 00:22:59;;;;;;;18.30;8.57;;;17.90;99.90;;;;;;4159074;28;20236;-81
2022/08/28 00:25:02;;;;;;;15.27;8.23;;;17.80;99.90;;;;;;4119873;28;20292;-80
2022/08/28 00:29:30;;;;;;;20.93;8.37;;;17.80;99.90;;;;;;4146170;28;20323;-81
2022/08/28 00:31:33;;;;;;;14.53;7.90;;;17.80;99.90;;;;;;4140241;28;20289;-81
2022/08/28 00:33:35;;;;;;;19.07;7.67;;;17.80;99.90;;;;;;4141669;28;20232;-80
2022/08/28 00:35:39;;;;;;;15.70;7.53;;;18.00;99.90;;;;;;4143321;28;20688;-78
2022/08/28 00:37:41;;;;;;;13.77;7.27;;;17.80;99.90;;;;;;4143620;28;20219;-81
2022/08/28 00:39:43;;;;;;;14.70;7.57;;;17.70;99.90;;;;;;4142334;28;20291;-80
2022/08/28 00:41:47;;;;;;;17.13;6.60;;;17.70;99.90;;;;;;4142388;28;20314;-80
2022/08/28 00:43:49;;;;;;;13.60;6.90;;;17.70;99.90;;;;;;4133783;28;20854;-80
2022/08/28 00:45:51;;;;;;;12.80;6.90;;;17.60;99.90;;;;;;4154595;28;20302;-80
2022/08/28 00:47:53;;;;;;;13.80;6.60;;;17.70;99.90;;;;;;4129348;28;20231;-80
2022/08/28 00:49:56;;;;;;;14.13;6.60;;;17.60;99.90;;;;;;4140776;28;20313;-80
2022/08/28 00:52:04;;;;;;;14.67;6.83;;;17.70;99.90;;;;;;4123161;28;20251;-79
2022/08/28 00:54:08;;;;;;;19.03;6.13;;;17.60;99.90;;;;;;4127939;28;20622;-80
2022/08/28 00:56:12;;;;;;;12.63;6.30;;;17.60;99.90;;;;;;4140920;28;20213;-80
2022/08/28 00:58:16;;;;;;;13.03;6.63;;;17.60;99.90;;;;;;4142859;28;20241;-80
2022/08/28 01:00:25;;;;;;;11.37;6.23;;;17.70;99.90;;;;;;4143512;28;20229;-81
2022/08/28 01:02:27;;;;;;;9.73;6.20;;;17.70;99.90;;;;;;4128347;28;20221;-79
2022/08/28 01:04:32;;;;;;;12.50;5.90;;;17.60;99.90;;;;;;4146046;28;20240;-79
2022/08/28 01:06:35;;;;;;;9.97;5.93;;;17.60;99.90;;;;;;4147826;28;20208;-80
2022/08/28 01:08:39;;;;;;;10.27;6.10;;;17.50;99.90;;;;;;4143215;28;20203;-79
2022/08/28 01:10:44;;;;;;;11.33;6.23;;;17.60;99.90;;;;;;4153694;28;20214;-80
2022/08/28 01:12:48;;;;;;;12.10;6.03;;;17.60;99.90;;;;;;4128417;28;20239;-80
2022/08/28 01:14:58;;;;;;;15.63;5.97;;;17.50;99.90;;;;;;4127469;28;20293;-80
2022/08/28 01:17:01;;;;;;;14.47;6.47;;;17.50;99.90;;;;;;4143874;28;20205;-80
2022/08/28 01:19:07;;;;;;;10.83;6.03;;;17.40;99.90;;;;;;4139498;28;20263;-80
2022/08/28 01:21:17;;;;;;;14.00;6.27;;;17.40;99.90;;;;;;4144012;28;20220;-80
2022/08/28 01:23:32;;;;;;;12.47;6.27;;;17.40;99.90;;;;;;4140755;28;20199;-80
2022/08/28 01:25:38;;;;;;;11.47;5.97;;;17.40;99.90;;;;;;4139979;28;20220;-80
2022/08/28 01:27:41;;;;;;;16.80;6.97;;;17.40;99.90;;;;;;4146584;28;20213;-81
2022/08/28 01:29:43;;;;;;;13.10;6.00;;;17.30;99.90;;;;;;4147237;28;20248;-81
2022/08/28 01:31:47;;;;;;;12.20;6.00;;;17.30;99.90;;;;;;4142235;28;20205;-80
2022/08/28 01:33:49;;;;;;;12.33;5.57;;;17.30;99.90;;;;;;4129189;28;20204;-80
2022/08/28 01:35:51;;;;;;;12.10;6.13;;;17.30;99.90;;;;;;4131051;28;20453;-81
2022/08/28 01:37:54;;;;;;;13.53;6.03;;;17.30;99.90;;;;;;4145218;28;20287;-81
2022/08/28 01:39:56;;;;;;;9.70;5.60;;;17.20;99.90;;;;;;4151623;28;20232;-81
2022/08/28 01:41:59;;;;;;;12.17;5.97;;;17.20;99.90;;;;;;4126068;28;20271;-80
2022/08/28 01:44:01;;;;;;;9.63;5.37;;;17.20;99.90;;;;;;4161084;28;20576;-81
2022/08/28 01:46:05;;;;;;;12.87;5.63;;;17.20;99.90;;;;;;4143677;28;20232;-80
2022/08/28 01:48:08;;;;;;;11.40;5.60;;;17.20;99.90;;;;;;4142682;28;20300;-80
2022/08/28 01:50:13;;;;;;;10.43;5.40;;;17.20;99.90;;;;;;4158956;28;20318;-80
2022/08/28 01:52:15;;;;;;;14.87;5.13;;;17.20;99.90;;;;;;4147610;28;20228;-80
2022/08/28 01:54:17;;;;;;;8.97;5.30;;;17.20;99.90;;;;;;4147690;28;20208;-80
2022/08/28 01:56:19;;;;;;;12.23;5.77;;;17.10;99.90;;;;;;4124303;28;20367;-80
2022/08/28 01:58:23;;;;;;;9.10;5.53;;;17.10;99.90;;;;;;4155352;28;20203;-80
2022/08/28 02:00:26;;;;;;;10.43;5.40;;;17.20;99.90;;;;;;4128690;28;20213;-80
2022/08/28 02:02:29;;;;;;;10.20;4.93;;;17.10;99.90;;;;;;4142864;28;20211;-80
2022/08/28 02:04:31;;;;;;;11.77;5.13;;;17.00;99.90;;;;;;4143729;28;20256;-79
2022/08/28 02:06:34;;;;;;;7.80;5.30;;;17.00;99.90;;;;;;4161096;28;20207;-80
2022/08/28 02:08:35;;;;;;;14.20;5.37;;;17.10;99.90;;;;;;4140977;28;20238;-80
2022/08/28 02:10:39;;;;;;;11.50;5.50;;;16.90;99.90;;;;;;4145844;28;20830;-80
2022/08/28 02:12:42;;;;;;;11.27;5.13;;;17.00;99.90;;;;;;4140033;28;20224;-80
2022/08/28 02:14:45;;;;;;;7.97;4.77;;;16.90;99.90;;;;;;4143937;28;20196;-80
2022/08/28 02:16:47;;;;;;;9.17;4.80;;;16.90;99.90;;;;;;4155245;28;20228;-80
2022/08/28 02:18:49;;;;;;;12.07;5.30;;;16.90;99.90;;;;;;4156884;28;20984;-79
2022/08/28 02:20:50;;;;;;;8.47;4.43;;;16.80;99.90;;;;;;4141268;28;20239;-82
2022/08/28 02:22:52;;;;;;;10.67;5.20;;;16.80;99.90;;;;;;4125041;28;20289;-82
2022/08/28 02:24:54;;;;;;;14.30;4.77;;;16.80;99.90;;;;;;4150917;28;20306;-81
2022/08/28 02:26:56;;;;;;;12.03;4.57;;;16.80;99.90;;;;;;4146369;28;20891;-82
2022/08/28 02:28:59;;;;;;;11.93;4.47;;;16.70;99.90;;;;;;4141431;28;20669;-81
2022/08/28 02:31:02;;;;;;;8.77;4.50;;;16.70;99.90;;;;;;4146332;28;20264;-81
2022/08/28 02:33:04;;;;;;;7.97;4.87;;;16.70;99.90;;;;;;4142708;28;20288;-81
2022/08/28 02:35:10;;;;;;;11.30;4.50;;;16.70;99.90;;;;;;4129789;28;20715;-81
2022/08/28 02:37:12;;;;;;;12.17;4.70;;;16.70;99.90;;;;;;4148783;28;20635;-81
2022/08/28 02:39:14;;;;;;;12.80;4.10;;;16.70;99.90;;;;;;4142725;28;20314;-80
2022/08/28 02:41:16;;;;;;;13.67;4.40;;;16.70;99.90;;;;;;4140184;28;20212;-81
2022/08/28 02:43:18;;;;;;;12.13;4.47;;;16.70;99.90;;;;;;4156955;28;20214;-80
2022/08/28 02:45:20;;;;;;;9.93;4.10;;;16.70;99.90;;;;;;4125997;28;20275;-80
2022/08/28 02:47:24;;;;;;;9.17;4.40;;;16.70;99.90;;;;;;4144700;28;20215;-80
2022/08/28 02:49:26;;;;;;;11.90;4.50;;;16.70;99.90;;;;;;4144851;28;20254;-80
2022/08/28 02:51:31;;;;;;;10.83;4.10;;;16.70;99.90;;;;;;4124967;28;20235;-80
2022/08/28 02:53:33;;;;;;;6.87;3.80;;;16.60;99.90;;;;;;4144122;28;20216;-81
2022/08/28 02:55:36;;;;;;;7.43;4.00;;;16.60;99.90;;;;;;4147922;28;20485;-80
2022/08/28 02:57:38;;;;;;;10.53;4.20;;;16.60;99.90;;;;;;4150649;28;20219;-82
2022/08/28 02:59:40;;;;;;;10.77;4.30;;;16.60;99.90;;;;;;4145795;28;20234;-82
2022/08/28 03:01:43;;;;;;;10.40;4.10;;;16.60;99.90;;;;;;4159481;28;20209;-82
2022/08/28 03:03:46;;;;;;;12.70;4.47;;;16.60;99.90;;;;;;4143637;28;20209;-82
2022/08/28 03:05:49;;;;;;;10.87;4.50;;;16.50;99.90;;;;;;4140604;28;20668;-82
2022/08/28 03:07:53;;;;;;;12.47;4.50;;;16.50;99.90;;;;;;4146420;28;20215;-81
2022/08/28 03:09:55;;;;;;;7.70;4.07;;;16.60;99.90;;;;;;4145494;28;20655;-80
2022/08/28 03:11:57;;;;;;;9.03;4.03;;;16.60;99.90;;;;;;4143568;28;20282;-80
2022/08/28 03:14:02;;;;;;;10.37;4.40;;;16.50;99.90;;;;;;4144970;28;20602;-80
2022/08/28 03:16:04;;;;;;;11.87;3.97;;;16.50;99.90;;;;;;4146115;28;20207;-80
2022/08/28 03:18:06;;;;;;;9.30;3.97;;;16.40;99.90;;;;;;4129719;28;20234;-80
2022/08/28 03:20:12;;;;;;;12.27;4.40;;;16.40;99.90;;;;;;4130930;28;20251;-78
2022/08/28 03:22:15;;;;;;;14.67;5.43;;;16.40;99.90;;;;;;4129007;28;20240;-80
2022/08/28 03:24:17;;;;;;;11.17;3.97;;;16.30;99.90;;;;;;4160040;28;20275;-80
2022/08/28 03:26:22;;;;;;;10.33;4.20;;;16.30;99.90;;;;;;4149159;28;20220;-79
2022/08/28 03:28:25;;;;;;;12.73;4.63;;;16.30;99.90;;;;;;4157417;28;20285;-79
2022/08/28 03:30:27;;;;;;;12.23;4.20;;;16.20;99.90;;;;;;4154445;28;20222;-79
2022/08/28 03:32:30;;;;;;;15.70;4.47;;;16.30;99.90;;;;;;4144951;28;20589;-79
2022/08/28 03:34:33;;;;;;;12.57;4.37;;;16.20;99.90;;;;;;4147739;28;20595;-79
2022/08/28 03:36:36;;;;;;;13.77;4.30;;;16.20;99.90;;;;;;4149333;28;20223;-79
2022/08/28 03:38:38;;;;;;;10.60;4.37;;;16.10;99.90;;;;;;4142810;28;20294;-80
2022/08/28 03:40:41;;;;;;;13.13;4.50;;;16.10;99.90;;;;;;4143565;28;20195;-80
2022/08/28 03:42:43;;;;;;;14.83;4.20;;;16.10;99.90;;;;;;4145740;28;20206;-80
2022/08/28 03:44:47;;;;;;;15.63;4.30;;;16.10;99.90;;;;;;4142007;28;20688;-80
2022/08/28 03:46:50;;;;;;;12.63;4.20;;;16.00;99.90;;;;;;4133644;28;20251;-80
2022/08/28 03:48:54;;;;;;;12.83;4.50;;;16.00;99.90;;;;;;4141799;28;20286;-80
2022/08/28 03:50:57;;;;;;;16.60;4.67;;;15.90;99.90;;;;;;4159930;28;20239;-80
2022/08/28 03:53:00;;;;;;;14.07;4.23;;;15.90;99.90;;;;;;4145114;28;20255;-80
2022/08/28 03:55:02;;;;;;;11.70;4.57;;;15.90;99.90;;;;;;4123937;28;20205;-79
2022/08/28 03:57:05;;;;;;;15.63;4.40;;;15.90;99.90;;;;;;4143318;28;20279;-80
2022/08/28 03:59:07;;;;;;;11.90;4.03;;;15.90;99.90;;;;;;4159145;28;20235;-79
2022/08/28 04:01:09;;;;;;;15.00;4.50;;;15.80;99.90;;;;;;4145095;28;20215;-79
2022/08/28 04:03:12;;;;;;;12.77;4.37;;;15.80;99.90;;;;;;4143844;28;20211;-79
2022/08/28 04:05:14;;;;;;;13.57;4.47;;;15.80;99.90;;;;;;4138532;28;20214;-79
2022/08/28 04:07:17;;;;;;;9.63;4.43;;;15.80;99.90;;;;;;4160826;28;20218;-80
2022/08/28 04:09:20;;;;;;;14.30;4.80;;;15.80;99.90;;;;;;4135324;28;20238;-79
2022/08/28 04:11:22;;;;;;;13.47;4.50;;;15.80;99.90;;;;;;4140028;28;20207;-79
2022/08/28 04:13:24;;;;;;;16.17;4.70;;;15.80;99.90;;;;;;4143054;28;20293;-80
2022/08/28 04:15:26;;;;;;;12.10;4.50;;;15.70;99.90;;;;;;4140730;28;20242;-80
2022/08/28 04:17:28;;;;;;;10.67;4.03;;;15.70;99.90;;;;;;4123461;28;20228;-79
2022/08/28 04:19:30;;;;;;;13.80;4.40;;;15.70;99.90;;;;;;4144802;28;20637;-80
2022/08/28 04:21:32;;;;;;;11.27;4.00;;;15.70;99.90;;;;;;4125671;28;20239;-80
2022/08/28 04:23:35;;;;;;;9.00;4.20;;;15.70;99.90;;;;;;4154463;28;20205;-80
2022/08/28 04:25:40;;;;;;;12.00;4.60;;;15.70;99.90;;;;;;4144371;28;20594;-80
2022/08/28 04:27:42;;;;;;;13.67;4.53;;;15.60;99.90;;;;;;4123350;28;20584;-80
2022/08/28 04:29:44;;;;;;;12.77;4.13;;;15.60;99.90;;;;;;4139560;28;20219;-79
2022/08/28 04:31:46;;;;;;;12.43;4.63;;;15.60;99.90;;;;;;4140168;28;20555;-79
2022/08/28 04:33:48;;;;;;;16.43;4.70;;;15.60;99.90;;;;;;4126000;28;20228;-79
2022/08/28 04:35:50;;;;;;;13.07;4.17;;;15.60;99.90;;;;;;4125995;28;20308;-79
2022/08/28 04:37:52;;;;;;;14.77;4.73;;;15.60;99.90;;;;;;4140032;28;20229;-79
2022/08/28 04:39:54;;;;;;;11.53;4.50;;;15.60;99.90;;;;;;4126737;28;20260;-80
2022/08/28 04:41:57;;;;;;;9.97;3.90;;;15.60;99.90;;;;;;4156886;28;20249;-80
2022/08/28 04:43:59;;;;;;;13.50;4.20;;;15.60;99.90;;;;;;4127245;28;20207;-80
2022/08/28 04:46:04;;;;;;;12.23;4.40;;;15.60;99.90;;;;;;4134397;28;20297;-79
2022/08/28 04:48:06;;;;;;;13.03;4.13;;;15.60;99.90;;;;;;4139165;28;20238;-79
2022/08/28 04:50:10;;;;;;;10.67;4.87;;;15.60;99.90;;;;;;4142583;28;20260;-80
2022/08/28 04:52:12;;;;;;;12.37;4.00;;;15.60;99.90;;;;;;4135890;28;20218;-79
2022/08/28 04:54:14;;;;;;;11.50;4.30;;;15.60;99.90;;;;;;4128158;28;20602;-79
2022/08/28 04:56:17;;;;;;;14.00;4.23;;;15.60;99.90;;;;;;4142461;28;20723;-80
2022/08/28 04:58:20;;;;;;;14.53;4.13;;;15.60;99.90;;;;;;4139058;28;20203;-80
2022/08/28 05:00:23;;;;;;;22.93;4.97;;;15.60;99.90;;;;;;4139565;28;20211;-80
2022/08/28 05:02:25;;;;;;;14.37;4.30;;;15.60;99.90;;;;;;4124157;28;20222;-80
2022/08/28 05:04:27;;;;;;;12.27;4.73;;;15.60;99.90;;;;;;4127153;28;20314;-81
2022/08/28 05:06:30;;;;;;;13.63;4.10;;;15.60;99.90;;;;;;4135831;28;20205;-81
2022/08/28 05:08:33;;;;;;;12.20;3.93;;;15.60;99.90;;;;;;4124617;28;20268;-80
2022/08/28 05:10:35;;;;;;;11.00;4.60;;;15.60;99.90;;;;;;4154948;28;20819;-80
2022/08/28 05:12:37;;;;;;;11.37;4.10;;;15.60;99.90;;;;;;4138635;28;20237;-80
2022/08/28 05:14:40;;;;;;;15.10;4.47;;;15.60;99.90;;;;;;4125489;28;20809;-80
2022/08/28 05:16:45;;;;;;;10.60;4.33;;;15.60;99.90;;;;;;4157015;28;20222;-79
2022/08/28 05:18:47;;;;;;;12.43;4.37;;;15.60;99.90;;;;;;4144026;28;20227;-80
2022/08/28 05:20:49;;;;;;;12.00;4.13;;;15.60;99.90;;;;;;4144487;28;20210;-80
2022/08/28 05:22:51;;;;;;;12.07;3.73;;;15.60;99.90;;;;;;4141133;28;20607;-80
2022/08/28 05:24:53;;;;;;;11.37;4.40;;;15.60;99.90;;;;;;4153990;28;20200;-79
2022/08/28 05:26:56;;;;;;;10.70;4.20;;;15.60;99.90;;;;;;4143920;28;20220;-80
2022/08/28 05:28:59;;;;;;;12.60;4.77;;;15.60;99.90;;;;;;4147433;28;20795;-79
2022/08/28 05:31:10;;;;;;;7.93;4.13;;;15.60;99.90;;;;;;4142224;28;20231;-80
2022/08/28 05:33:13;;;;;;;11.27;4.20;;;15.60;99.90;;;;;;4139500;28;20236;-80
2022/08/28 05:35:15;;;;;;;11.23;4.53;;;15.60;99.90;;;;;;4140526;28;20207;-80
2022/08/28 05:37:17;;;;;;;10.70;4.87;;;15.60;99.90;;;;;;4142776;28;20290;-79
2022/08/28 05:39:20;;;;;;;10.97;4.70;;;15.60;99.90;;;;;;4138517;28;20367;-79
2022/08/28 05:41:24;;;;;;;11.33;4.43;;;15.60;99.90;;;;;;4139969;28;20669;-79
2022/08/28 05:43:27;;;;;;;10.67;3.73;;;15.60;99.90;;;;;;4143980;28;20688;-79
2022/08/28 05:45:28;;;;;;;9.77;4.43;;;15.60;99.90;;;;;;4137585;28;20246;-79
2022/08/28 05:47:32;;;;;;;14.90;4.73;;;15.60;99.90;;;;;;4154553;28;20295;-79
2022/08/28 05:49:34;;;;;;;8.27;3.90;;;15.60;99.90;;;;;;4142983;28;20265;-79
2022/08/28 05:51:36;;;;;;;9.47;4.30;;;15.60;99.90;;;;;;4153539;28;20211;-79
2022/08/28 05:53:40;;;;;;;7.80;4.53;;;15.60;99.90;;;;;;4123311;28;20767;-79
2022/08/28 05:55:42;;;;;;;15.90;4.33;;;15.60;99.90;;;;;;4146929;28;20260;-79
2022/08/28 05:57:44;;;;;;;17.83;4.97;;;15.60;99.90;;;;;;4138767;28;20215;-79
2022/08/28 05:59:46;;;;;;;17.20;5.10;;;15.60;99.90;;;;;;4144169;28;20278;-78
2022/08/28 06:01:49;;;;;;;13.07;4.87;;;15.60;99.90;;;;;;4151499;28;20214;-78
2022/08/28 06:03:55;;;;;;;11.43;4.50;;;15.50;99.90;;;;;;4140077;28;20286;-79
2022/08/28 06:05:59;;;;;;;13.23;4.40;;;15.50;99.90;;;;;;4129962;28;20223;-79
2022/08/28 06:08:01;;;;;;;11.57;4.33;;;15.50;99.90;;;;;;4120540;28;20204;-79
2022/08/28 06:10:06;;;;;;;13.50;5.03;;;15.50;99.90;;;;;;4154017;28;20767;-79
2022/08/28 06:12:09;;;;;;;11.30;4.70;;;15.50;99.90;;;;;;4121211;28;20677;-79
2022/08/28 06:14:12;;;;;;;12.40;4.80;;;15.50;99.90;;;;;;4119468;28;20234;-79
2022/08/28 06:16:14;;;;;;;15.73;5.37;;;15.60;99.90;;;;;;4139968;28;20282;-80
2022/08/28 06:18:17;;;;;;;11.73;4.80;;;15.50;99.90;;;;;;4152182;28;20670;-78
2022/08/28 06:20:20;;;;;;;11.73;4.67;;;15.50;99.90;;;;;;4138552;28;20449;-78
2022/08/28 06:22:22;;;;;;;12.10;5.10;;;15.60;99.90;;;;;;4141753;28;20206;-78
2022/08/28 06:24:24;;;;;;;19.10;5.53;;;15.50;99.90;;;;;;4138947;28;20732;-77
2022/08/28 06:26:26;;;;;;;11.33;5.23;;;15.50;99.90;;;;;;4137079;28;20210;-78
2022/08/28 06:28:29;;;;;;;13.40;5.50;;;15.50;99.90;;;;;;4135983;28;20571;-78
2022/08/28 06:30:30;;;;;;;11.57;5.13;;;15.50;99.90;;;;;;4138994;28;20891;-78
2022/08/28 06:32:32;;;;;;;12.17;5.10;;;15.50;99.90;;;;;;4142766;28;20200;-78
2022/08/28 06:34:34;;;;;;;19.57;5.97;;;15.50;99.90;;;;;;4142856;28;20664;-79
2022/08/28 06:36:40;;;;;;;14.40;5.93;;;15.50;99.90;;;;;;4128229;28;20273;-79
2022/08/28 06:38:45;;;;;;;36.30;18.20;;;15.50;99.90;;;;;;4141514;28;20327;-77
2022/08/28 06:40:49;;;;;;;26.53;14.40;;;15.50;99.90;;;;;;4146013;28;20214;-75
2022/08/28 06:42:51;;;;;;;19.63;10.90;;;15.50;99.90;;;;;;4143369;28;20300;-77
2022/08/28 06:44:53;;;;;;;16.93;9.23;;;15.50;99.90;;;;;;4138340;28;20684;-77
2022/08/28 06:46:55;;;;;;;17.77;8.43;;;15.50;99.90;;;;;;4139878;28;20335;-76
2022/08/28 06:48:56;;;;;;;16.23;7.63;;;15.60;99.90;;;;;;4125698;28;20234;-75
2022/08/28 06:50:59;;;;;;;15.67;6.23;;;15.60;99.90;;;;;;4140687;28;20550;-76
2022/08/28 06:53:02;;;;;;;11.47;5.57;;;15.60;99.90;;;;;;4142502;28;20226;-74
2022/08/28 06:55:05;;;;;;;19.33;5.70;;;15.60;99.90;;;;;;4122590;28;20323;-77
2022/08/28 06:57:15;;;;;;;13.70;5.47;;;15.60;99.90;;;;;;4126926;28;20227;-77
2022/08/28 06:59:17;;;;;;;10.40;4.97;;;15.60;99.90;;;;;;4123023;28;20228;-76
2022/08/28 07:01:23;;;;;;;12.33;4.67;;;15.50;99.90;;;;;;4139426;28;20216;-76
2022/08/28 07:03:24;;;;;;;18.40;5.13;;;15.50;99.90;;;;;;4141722;28;20228;-78
2022/08/28 07:05:26;;;;;;;13.17;5.03;;;15.60;99.90;;;;;;4138141;28;20238;-77
2022/08/28 07:07:28;;;;;;;13.27;5.00;;;15.50;99.90;;;;;;4143528;28;20950;-78
2022/08/28 07:09:32;;;;;;;13.03;5.30;;;15.50;99.90;;;;;;4145851;28;20228;-79
2022/08/28 07:11:35;;;;;;;17.23;5.43;;;15.50;99.90;;;;;;4139426;28;20298;-76
2022/08/28 07:13:37;;;;;;;18.63;5.13;;;15.50;99.90;;;;;;4134389;28;20224;-76
2022/08/28 07:15:39;;;;;;;11.67;4.53;;;15.50;99.90;;;;;;4119875;28;20659;-77
2022/08/28 07:17:41;;;;;;;13.43;4.70;;;15.50;99.90;;;;;;4126010;28;20298;-78
2022/08/28 07:19:43;;;;;;;12.30;4.20;;;15.50;99.90;;;;;;4138291;28;20232;-78
2022/08/28 07:21:46;;;;;;;11.67;4.60;;;15.50;99.90;;;;;;4151962;28;20308;-77
2022/08/28 07:23:49;;;;;;;9.37;4.60;;;15.50;99.90;;;;;;4139277;28;20291;-76
2022/08/28 07:25:52;;;;;;;8.90;4.37;;;15.50;99.90;;;;;;4139666;28;20242;-77
2022/08/28 07:27:54;;;;;;;9.87;4.30;;;15.50;99.90;;;;;;4143371;28;20205;-77
2022/08/28 07:29:57;;;;;;;11.23;4.30;;;15.50;99.90;;;;;;4125693;28;20267;-76
2022/08/28 07:31:59;;;;;;;13.13;5.20;;;15.50;99.90;;;;;;4140354;28;20212;-78
2022/08/28 07:34:01;;;;;;;8.13;4.33;;;15.60;99.90;;;;;;4145288;28;20211;-78
2022/08/28 07:36:05;;;;;;;13.23;4.50;;;15.60;99.90;;;;;;4139640;28;20323;-78
2022/08/28 07:38:07;;;;;;;13.50;5.07;;;15.60;99.90;;;;;;4143194;28;20253;-77
2022/08/28 07:40:11;;;;;;;26.00;12.60;;;15.60;99.90;;;;;;4137271;28;20243;-77
2022/08/28 07:44:48;;;;;;;21.60;9.70;;;15.60;99.90;;;;;;4124488;28;20211;-78
2022/08/28 07:44:50;;;;;;;21.70;7.90;;;15.70;99.90;;;;;;4137234;28;20207;-79
2022/08/28 07:46:54;;;;;;;14.93;7.77;;;15.80;99.90;;;;;;4141633;28;20273;-79
2022/08/28 07:48:57;;;;;;;13.67;7.03;;;15.90;99.90;;;;;;4152575;28;20251;-80
2022/08/28 07:50:59;;;;;;;15.97;8.87;;;15.90;99.90;;;;;;4154441;28;20216;-79
2022/08/28 07:53:01;;;;;;;15.50;7.57;;;16.00;99.90;;;;;;4147920;28;20219;-78
2022/08/28 07:55:04;;;;;;;18.23;6.70;;;16.10;99.90;;;;;;4138848;28;20318;-78
2022/08/28 07:57:09;;;;;;;11.60;5.30;;;16.10;99.90;;;;;;4151272;28;20197;-78
2022/08/28 07:59:13;;;;;;;10.90;4.90;;;16.20;99.90;;;;;;4137856;28;20228;-78
2022/08/28 08:01:16;;;;;;;13.10;4.97;;;16.20;99.90;;;;;;4145459;28;20204;-78
2022/08/28 08:03:18;;;;;;;8.33;4.50;;;16.30;99.90;;;;;;4138896;28;20727;-77
2022/08/28 08:05:20;;;;;;;11.57;4.33;;;16.40;99.90;;;;;;4153979;28;20207;-78
2022/08/28 08:07:22;;;;;;;14.90;5.40;;;16.50;99.90;;;;;;4138881;28;20200;-75
2022/08/28 08:09:24;;;;;;;14.10;4.60;;;16.50;99.90;;;;;;4135161;28;20236;-75
2022/08/28 08:11:27;;;;;;;11.30;5.77;;;16.60;99.90;;;;;;4139580;28;20208;-77
2022/08/28 08:13:29;;;;;;;16.20;6.30;;;16.70;99.90;;;;;;4134028;28;20205;-77
2022/08/28 08:15:35;;;;;;;13.47;5.23;;;16.70;99.90;;;;;;4137765;28;20319;-76
2022/08/28 08:17:37;;;;;;;17.60;5.17;;;16.80;99.90;;;;;;4141026;28;20212;-75
2022/08/28 08:19:39;;;;;;;12.80;4.67;;;16.80;99.90;;;;;;4140897;28;20496;-77
2022/08/28 08:21:45;;;;;;;10.43;4.30;;;16.90;99.90;;;;;;4142345;28;20221;-77
2022/08/28 08:23:48;;;;;;;11.73;4.53;;;16.90;99.90;;;;;;4142320;28;20667;-76
2022/08/28 08:25:57;;;;;;;14.30;4.47;;;17.00;99.90;;;;;;4142957;28;20247;-77
2022/08/28 08:27:59;;;;;;;12.20;4.40;;;17.00;99.90;;;;;;4138770;28;20217;-78
2022/08/28 08:30:02;;;;;;;12.10;4.67;;;17.00;99.90;;;;;;4143065;28;20236;-77
2022/08/28 08:32:08;;;;;;;8.03;4.40;;;17.10;99.90;;;;;;4138318;28;20208;-77
2022/08/28 08:34:10;;;;;;;9.33;4.03;;;17.10;99.90;;;;;;4125596;28;20213;-77
2022/08/28 08:36:15;;;;;;;14.43;4.30;;;17.20;99.90;;;;;;4144447;28;20282;-76
2022/08/28 08:38:17;;;;;;;10.60;3.83;;;17.20;99.90;;;;;;4157558;28;20273;-77
2022/08/28 08:40:19;;;;;;;7.70;3.93;;;17.30;99.90;;;;;;4142774;28;20256;-78
2022/08/28 08:42:25;;;;;;;13.53;6.40;;;17.30;99.90;;;;;;4126431;28;20240;-75
2022/08/28 08:44:29;;;;;;;16.97;8.63;;;17.30;99.90;;;;;;4135796;28;20222;-76
2022/08/28 08:46:35;;;;;;;18.27;10.53;;;17.30;99.90;;;;;;4140238;28;20200;-75
2022/08/28 08:48:40;;;;;;;22.23;11.77;;;17.40;99.90;;;;;;4136295;28;20228;-76
2022/08/28 08:50:44;;;;;;;13.80;7.23;;;17.50;99.90;;;;;;4146342;28;20266;-77
2022/08/28 08:53:08;;;;;;;13.80;6.77;;;17.50;99.90;;;;;;4143702;28;20213;-77
2022/08/28 08:55:30;;;;;;;12.97;4.83;;;17.60;99.90;;;;;;4154068;28;20245;-78
2022/08/28 08:57:34;;;;;;;11.07;4.23;;;17.70;99.90;;;;;;4136146;28;20211;-77
2022/08/28 08:59:38;;;;;;;7.27;4.30;;;17.70;99.90;;;;;;4138818;28;20239;-78
2022/08/28 09:01:46;;;;;;;10.03;4.37;;;17.80;99.90;;;;;;4141875;28;20261;-78
2022/08/28 09:03:56;;;;;;;11.67;4.00;;;17.80;99.90;;;;;;4139201;28;20209;-77
2022/08/28 09:06:02;;;;;;;7.83;3.90;;;17.80;99.90;;;;;;4135569;28;20289;-78
2022/08/28 09:08:06;;;;;;;14.20;4.70;;;17.90;99.90;;;;;;4135845;28;20240;-77
2022/08/28 09:10:11;;;;;;;11.50;4.13;;;18.00;99.90;;;;;;4150565;28;20256;-77
2022/08/28 09:12:16;;;;;;;10.10;4.40;;;18.00;99.90;;;;;;4138072;28;20214;-77
2022/08/28 09:14:25;;;;;;;9.90;4.60;;;18.10;99.90;;;;;;4135655;28;20201;-77
2022/08/28 09:16:31;;;;;;;7.10;3.53;;;18.20;99.90;;;;;;4137481;28;20256;-77
2022/08/28 09:18:34;;;;;;;7.40;3.70;;;18.20;99.90;;;;;;4121198;28;20234;-77
2022/08/28 09:20:38;;;;;;;11.77;4.30;;;18.30;99.90;;;;;;4134374;28;20259;-78
2022/08/28 09:22:43;;;;;;;9.47;4.13;;;18.30;99.90;;;;;;4118901;28;20218;-77
2022/08/28 09:24:46;;;;;;;11.33;4.20;;;18.30;99.90;;;;;;4134916;28;20214;-78
2022/08/28 09:26:54;;;;;;;10.33;3.83;;;18.30;99.90;;;;;;4135865;28;20245;-77
2022/08/28 09:29:02;;;;;;;8.10;3.73;;;18.30;99.90;;;;;;4122395;28;20239;-77
2022/08/28 09:31:07;;;;;;;13.17;3.80;;;18.30;99.90;;;;;;4139454;28;20212;-78
2022/08/28 09:33:09;;;;;;;12.63;4.40;;;18.50;99.90;;;;;;4121090;28;20215;-77
2022/08/28 09:35:19;;;;;;;10.67;4.10;;;18.50;99.90;;;;;;4135611;28;20229;-77
2022/08/28 09:37:27;;;;;;;10.00;3.63;;;18.50;99.90;;;;;;4140113;28;20218;-77
2022/08/28 09:39:31;;;;;;;8.13;3.90;;;18.60;99.90;;;;;;4136876;28;20239;-77
2022/08/28 09:43:57;;;;;;;12.00;4.00;;;18.70;99.90;;;;;;4134620;28;20196;-77
2022/08/28 09:46:01;;;;;;;9.07;3.87;;;18.70;99.90;;;;;;4138230;28;20206;-77
2022/08/28 09:48:19;;;;;;;7.93;3.50;;;18.70;99.90;;;;;;4138962;28;20208;-79
2022/08/28 09:50:29;;;;;;;9.93;3.80;;;18.80;99.90;;;;;;4154452;28;20368;-78
2022/08/28 09:52:32;;;;;;;10.13;4.13;;;18.80;99.90;;;;;;4136318;28;20228;-81
2022/08/28 09:54:42;;;;;;;8.20;3.47;;;18.80;99.90;;;;;;4134344;28;20215;-78
2022/08/28 09:56:44;;;;;;;12.50;3.43;;;18.80;99.90;;;;;;4142879;28;20202;-78
2022/08/28 09:58:49;;;;;;;13.17;3.37;;;18.90;99.90;;;;;;4132828;28;20254;-79
2022/08/28 10:00:57;;;;;;;10.60;3.73;;;18.90;99.90;;;;;;4137029;28;20218;-78
2022/08/28 10:03:07;;;;;;;10.10;3.70;;;19.00;99.90;;;;;;4116761;28;20299;-80
2022/08/28 10:05:15;;;;;;;9.07;3.27;;;19.00;99.90;;;;;;4137069;28;20206;-77
2022/08/28 10:07:28;;;;;;;6.33;2.97;;;19.00;99.90;;;;;;4138596;28;20216;-78
2022/08/28 10:09:44;;;;;;;10.50;3.37;;;19.10;99.90;;;;;;4140773;28;20278;-78
2022/08/28 10:11:53;;;;;;;8.13;3.17;;;19.20;99.90;;;;;;4144333;28;20237;-78
2022/08/28 10:14:05;;;;;;;8.97;3.80;;;19.20;99.90;;;;;;4157576;28;20219;-79
2022/08/28 10:16:19;;;;;;;9.77;3.17;;;19.30;99.90;;;;;;4143149;28;20251;-78
2022/08/28 10:18:37;;;;;;;8.87;2.80;;;19.30;99.90;;;;;;4142637;28;20901;-80
2022/08/28 10:20:50;;;;;;;8.13;3.17;;;19.40;99.90;;;;;;4157330;28;20218;-79
2022/08/28 10:23:01;;;;;;;9.80;3.20;;;19.40;99.90;;;;;;4141691;28;20206;-80
2022/08/28 10:25:20;;;;;;;7.47;2.90;;;19.50;99.90;;;;;;4119209;28;20216;-80
2022/08/28 10:27:38;;;;;;;8.33;3.00;;;19.50;99.90;;;;;;4152153;28;20232;-80
2022/08/28 10:29:49;;;;;;;7.97;3.43;;;19.60;99.90;;;;;;4141184;28;20269;-79
2022/08/28 10:31:59;;;;;;;6.63;2.97;;;19.70;99.90;;;;;;4136020;28;20302;-79
2022/08/28 10:34:15;;;;;;;7.13;2.97;;;19.70;99.90;;;;;;4141483;28;20294;-79
2022/08/28 10:36:20;;;;;;;6.63;2.67;;;19.70;99.90;;;;;;4123409;28;20242;-80
2022/08/28 10:38:32;;;;;;;7.50;2.90;;;19.80;99.90;;;;;;4129492;28;20201;-79
2022/08/28 10:40:39;;;;;;;5.80;2.60;;;19.90;99.90;;;;;;4141201;28;20231;-78
2022/08/28 10:42:48;;;;;;;9.30;2.83;;;19.90;99.90;;;;;;4126978;28;20323;-77